Time;durP1;ratioP1;P1;durP2;ratioP2;P2;SDS_P1;SDS_P2;PMS_P1;PMS_P2;Temp;Humidity;BMP_temperature;BMP_pressure;BME280_temperature;BME280_humidity;BME280_pressure;Samples;Min_cycle;Max_cycle;Signal;HPM_P1;HPM_P2
2024/01/07 00:02:22;;;;;;;26.25;20.95;;;;;;;4.68;67.60;101625.84;5069622;28;20524;-65
2024/01/07 00:04:47;;;;;;;28.92;22.63;;;;;;;4.62;67.87;101630.19;5081061;28;20086;-65
2024/01/07 00:07:12;;;;;;;27.88;21.65;;;;;;;4.62;68.11;101627.44;5069965;28;20035;-65
2024/01/07 00:09:38;;;;;;;29.20;22.23;;;;;;;4.62;68.07;101629.34;5065980;28;20045;-64
2024/01/07 00:12:03;;;;;;;28.90;22.13;;;;;;;4.64;68.05;101632.78;5060025;28;20024;-65
2024/01/07 00:14:28;;;;;;;29.35;22.65;;;;;;;4.61;67.86;101634.00;5079846;28;20736;-66
2024/01/07 00:16:54;;;;;;;31.33;22.67;;;;;;;4.62;68.02;101641.19;5070629;28;20062;-64
2024/01/07 00:19:19;;;;;;;29.15;22.20;;;;;;;4.63;68.41;101640.13;5072120;28;20043;-65
2024/01/07 00:21:44;;;;;;;30.00;23.08;;;;;;;4.64;68.02;101639.13;5068220;28;20017;-64
2024/01/07 00:24:09;;;;;;;27.90;22.40;;;;;;;4.64;67.95;101647.38;5056487;28;20075;-64
2024/01/07 00:26:35;;;;;;;27.80;22.73;;;;;;;4.68;67.28;101645.94;5074004;28;20024;-66
2024/01/07 00:29:00;;;;;;;29.35;21.40;;;;;;;4.63;67.30;101642.88;5057049;28;20057;-65
2024/01/07 00:31:25;;;;;;;28.35;22.52;;;;;;;4.64;68.17;101644.63;5063876;28;20031;-65
2024/01/07 00:33:50;;;;;;;27.85;22.38;;;;;;;4.62;67.84;101646.69;5069389;28;20029;-65
2024/01/07 00:36:16;;;;;;;26.90;21.33;;;;;;;4.62;67.71;101651.34;5055335;28;20122;-66
2024/01/07 00:38:41;;;;;;;25.75;21.67;;;;;;;4.63;67.43;101650.28;5084200;28;20028;-66
2024/01/07 00:41:06;;;;;;;28.17;21.77;;;;;;;4.63;67.77;101653.88;5064790;28;20035;-65
2024/01/07 00:43:32;;;;;;;26.40;21.80;;;;;;;4.63;67.41;101658.53;5089591;28;20032;-65
2024/01/07 00:45:57;;;;;;;28.38;21.70;;;;;;;4.65;67.91;101657.31;5088188;28;20048;-65
2024/01/07 00:48:22;;;;;;;26.42;21.08;;;;;;;4.66;67.65;101669.16;5072117;28;20132;-65
2024/01/07 00:50:47;;;;;;;26.33;20.17;;;;;;;4.68;67.93;101656.94;5066058;28;20043;-65
2024/01/07 00:53:13;;;;;;;25.90;21.02;;;;;;;4.66;67.98;101667.25;5065433;28;20111;-65
2024/01/07 00:55:38;;;;;;;24.17;20.20;;;;;;;4.64;67.11;101666.63;5084714;28;20478;-65
2024/01/07 00:58:03;;;;;;;23.88;20.50;;;;;;;4.65;67.28;101668.31;5077851;28;20024;-65
2024/01/07 01:00:29;;;;;;;24.27;20.25;;;;;;;4.61;67.21;101657.91;5051454;28;20033;-65
2024/01/07 01:02:55;;;;;;;21.85;19.42;;;;;;;4.67;67.25;101668.94;5072180;28;20131;-65
2024/01/07 01:05:20;;;;;;;20.35;18.23;;;;;;;4.63;66.98;101675.88;5070490;28;20086;-65
2024/01/07 01:07:46;;;;;;;20.50;18.30;;;;;;;4.54;66.93;101684.47;5063701;28;20506;-65
2024/01/07 01:10:11;;;;;;;20.65;17.73;;;;;;;4.56;67.22;101685.09;5073783;28;20395;-65
2024/01/07 01:12:36;;;;;;;20.73;18.48;;;;;;;4.59;67.55;101691.06;5059079;28;20116;-65
2024/01/07 01:15:01;;;;;;;19.77;17.65;;;;;;;4.59;67.23;101690.22;5050762;28;20036;-65
2024/01/07 01:17:27;;;;;;;21.75;19.48;;;;;;;4.60;67.29;101692.78;5053016;28;20094;-65
2024/01/07 01:19:52;;;;;;;21.67;18.92;;;;;;;4.61;67.12;101693.66;5059076;28;20048;-65
2024/01/07 01:22:17;;;;;;;21.95;18.92;;;;;;;4.58;67.13;101700.38;5059054;28;20119;-65
2024/01/07 01:24:45;;;;;;;21.17;18.55;;;;;;;4.54;67.17;101692.72;5090562;28;20024;-65
2024/01/07 01:27:11;;;;;;;21.27;18.95;;;;;;;4.54;67.10;101690.81;5084113;28;20510;-65
2024/01/07 01:29:37;;;;;;;22.25;18.83;;;;;;;4.58;67.04;101694.03;5074393;28;20468;-65
2024/01/07 01:32:02;;;;;;;21.20;18.90;;;;;;;4.51;66.90;101693.94;5069496;28;20039;-65
2024/01/07 01:34:27;;;;;;;22.52;20.00;;;;;;;4.47;67.32;101700.00;5059478;28;20103;-65
2024/01/07 01:36:52;;;;;;;22.90;19.45;;;;;;;4.50;67.51;101702.38;5068425;28;20116;-65
2024/01/07 01:39:18;;;;;;;26.77;20.45;;;;;;;4.51;67.39;101715.94;5070376;28;20043;-65
2024/01/07 01:41:43;;;;;;;24.80;20.40;;;;;;;4.47;67.43;101708.25;5080677;28;20064;-65
2024/01/07 01:44:09;;;;;;;26.92;23.02;;;;;;;4.30;67.40;101710.38;5088536;28;20047;-66
2024/01/07 01:46:34;;;;;;;27.17;21.25;;;;;;;4.29;67.85;101717.78;5075858;28;20040;-65
2024/01/07 01:49:01;;;;;;;27.98;22.17;;;;;;;4.27;68.06;101713.50;5065109;28;20063;-65
2024/01/07 01:51:26;;;;;;;29.83;22.58;;;;;;;4.30;68.27;101716.72;5088027;28;20080;-65
2024/01/07 01:53:52;;;;;;;29.30;23.88;;;;;;;4.30;68.26;101724.13;5073460;28;20040;-65
2024/01/07 01:56:20;;;;;;;29.83;23.55;;;;;;;4.29;68.37;101725.16;5070677;28;20426;-65
2024/01/07 01:58:46;;;;;;;29.75;22.80;;;;;;;4.32;68.49;101725.66;5080075;28;20032;-65
2024/01/07 02:01:12;;;;;;;31.98;23.90;;;;;;;4.34;68.99;101725.44;5071865;28;20535;-65
2024/01/07 02:03:38;;;;;;;29.15;22.35;;;;;;;4.35;68.63;101727.13;5054179;28;20392;-65
2024/01/07 02:06:03;;;;;;;28.70;22.88;;;;;;;4.41;68.82;101731.88;5083620;28;20025;-65
2024/01/07 02:08:29;;;;;;;30.25;23.45;;;;;;;4.39;68.71;101728.47;5062122;28;20163;-65
2024/01/07 02:10:55;;;;;;;29.70;22.90;;;;;;;4.35;68.35;101738.13;5060948;28;20033;-65
2024/01/07 02:13:20;;;;;;;31.48;23.20;;;;;;;4.31;68.56;101731.31;5064877;28;20060;-65
2024/01/07 02:15:45;;;;;;;31.77;23.75;;;;;;;4.37;69.06;101738.81;5053842;28;20079;-65
2024/01/07 02:18:10;;;;;;;32.63;24.77;;;;;;;4.34;69.08;101737.28;5059034;28;20025;-65
2024/01/07 02:20:36;;;;;;;33.22;24.55;;;;;;;4.34;68.96;101741.94;5083604;28;20028;-65
2024/01/07 02:23:03;;;;;;;33.00;25.50;;;;;;;4.34;69.15;101741.94;5088478;28;20020;-65
2024/01/07 02:25:28;;;;;;;31.42;23.40;;;;;;;4.30;69.37;101740.59;5080737;28;20043;-65
2024/01/07 02:27:53;;;;;;;32.95;24.83;;;;;;;4.33;69.37;101745.72;5075015;28;20033;-65
2024/01/07 02:30:19;;;;;;;30.92;24.52;;;;;;;4.38;69.22;101746.00;5085999;28;20387;-65
2024/01/07 02:32:44;;;;;;;31.08;24.00;;;;;;;4.34;69.89;101751.03;5081150;28;20455;-65
2024/01/07 02:35:09;;;;;;;27.88;21.70;;;;;;;4.36;69.69;101740.72;5067817;28;20075;-65
2024/01/07 02:37:34;;;;;;;28.70;21.77;;;;;;;4.35;70.36;101749.13;5059761;28;20066;-65
2024/01/07 02:40:00;;;;;;;31.40;22.85;;;;;;;4.34;70.03;101755.69;5079788;28;20055;-65
2024/01/07 02:42:25;;;;;;;30.85;22.10;;;;;;;4.30;70.54;101744.22;5092788;28;20459;-65
2024/01/07 02:44:51;;;;;;;31.35;22.38;;;;;;;4.30;70.52;101757.94;5075816;28;20043;-65
2024/01/07 02:47:16;;;;;;;32.17;24.52;;;;;;;4.29;71.12;101749.91;5064274;28;20028;-65
2024/01/07 02:49:41;;;;;;;29.15;22.75;;;;;;;4.32;70.54;101749.50;5058046;28;20033;-65
2024/01/07 02:52:06;;;;;;;33.47;23.70;;;;;;;4.24;70.50;101757.84;5053020;28;20029;-65
2024/01/07 02:54:32;;;;;;;37.55;25.40;;;;;;;4.16;71.03;101761.53;5072934;28;20081;-65
2024/01/07 02:56:57;;;;;;;34.80;24.55;;;;;;;4.16;70.74;101761.53;5070571;28;20032;-65
2024/01/07 02:59:22;;;;;;;35.60;25.52;;;;;;;4.19;71.40;101774.91;5064708;28;20020;-65
2024/01/07 03:01:48;;;;;;;36.28;26.02;;;;;;;4.21;71.30;101774.72;5065921;28;20095;-65
2024/01/07 03:04:15;;;;;;;38.88;26.45;;;;;;;4.18;71.21;101770.47;5052556;28;20067;-65
2024/01/07 03:06:41;;;;;;;40.17;27.65;;;;;;;4.17;71.40;101772.34;5069864;28;20389;-65
2024/01/07 03:09:06;;;;;;;41.47;29.33;;;;;;;4.17;71.15;101775.09;5058029;28;20126;-65
2024/01/07 03:11:32;;;;;;;48.03;30.40;;;;;;;4.18;71.38;101776.81;5072713;28;20025;-65
2024/01/07 03:13:57;;;;;;;45.80;30.58;;;;;;;4.21;71.59;101780.22;5081610;28;20094;-65
2024/01/07 03:16:24;;;;;;;44.88;29.30;;;;;;;4.17;71.60;101775.09;5070524;28;20071;-65
2024/01/07 03:18:50;;;;;;;44.65;30.55;;;;;;;4.20;71.72;101779.34;5057135;28;20111;-65
2024/01/07 03:21:19;;;;;;;43.40;29.77;;;;;;;4.19;72.05;101783.16;5090754;28;20475;-65
2024/01/07 03:23:45;;;;;;;47.67;32.22;;;;;;;4.11;71.35;101789.56;5071551;28;20137;-65
2024/01/07 03:26:10;;;;;;;47.25;30.50;;;;;;;4.10;71.85;101784.28;5070150;28;20031;-65
2024/01/07 03:28:35;;;;;;;48.38;31.58;;;;;;;4.07;72.39;101782.75;5057447;28;20036;-65
2024/01/07 03:31:05;;;;;;;49.15;31.83;;;;;;;4.09;72.29;101788.94;5081189;28;20498;-65
2024/01/07 03:33:30;;;;;;;47.90;31.98;;;;;;;4.14;72.11;101789.22;5070431;28;20494;-65
2024/01/07 03:35:56;;;;;;;49.88;32.20;;;;;;;4.13;72.03;101784.75;5055418;28;20033;-65
2024/01/07 03:38:21;;;;;;;44.60;31.70;;;;;;;4.05;72.11;101794.97;5077750;28;20016;-65
2024/01/07 03:40:46;;;;;;;54.03;32.63;;;;;;;4.06;71.88;101792.03;5064433;28;20117;-65
2024/01/07 03:43:11;;;;;;;50.63;32.50;;;;;;;4.02;72.16;101795.34;5058035;28;20024;-65
2024/01/07 03:45:37;;;;;;;47.97;31.15;;;;;;;4.00;72.12;101795.53;5065853;28;20048;-65
2024/01/07 03:48:02;;;;;;;47.97;31.23;;;;;;;4.02;71.84;101793.47;5071941;28;20024;-65
2024/01/07 03:50:27;;;;;;;50.53;31.92;;;;;;;4.01;71.63;101801.88;5069513;28;20569;-65
2024/01/07 03:52:53;;;;;;;41.13;30.48;;;;;;;4.00;71.90;101795.53;5079553;28;20032;-65
2024/01/07 03:55:18;;;;;;;40.55;29.30;;;;;;;4.02;71.90;101803.59;5069253;28;20037;-65
2024/01/07 03:57:43;;;;;;;41.85;28.80;;;;;;;4.05;71.43;101801.34;5091938;28;20043;-65
2024/01/07 04:00:09;;;;;;;36.08;25.80;;;;;;;4.04;71.57;101802.34;5084906;28;20040;-65
2024/01/07 04:02:35;;;;;;;39.45;28.65;;;;;;;4.01;71.18;101805.50;5062335;28;20041;-65
2024/01/07 04:05:03;;;;;;;37.42;26.60;;;;;;;4.06;71.40;101815.91;5068693;28;20025;-65
2024/01/07 04:07:28;;;;;;;34.53;25.67;;;;;;;4.03;71.24;101817.13;5071720;28;20077;-65
2024/01/07 04:09:54;;;;;;;35.13;26.77;;;;;;;3.99;70.82;101814.97;5087477;28;20028;-65
2024/01/07 04:12:19;;;;;;;37.63;26.88;;;;;;;4.03;71.34;101816.28;5068480;28;20072;-65
2024/01/07 04:14:44;;;;;;;37.40;26.73;;;;;;;4.06;70.68;101826.91;5052997;28;20555;-65
2024/01/07 04:17:09;;;;;;;35.92;26.40;;;;;;;4.06;70.82;101821.41;5086015;28;20113;-65
2024/01/07 04:19:38;;;;;;;36.63;26.27;;;;;;;4.03;70.99;101825.38;5085892;28;20043;-65
2024/01/07 04:22:03;;;;;;;33.30;25.13;;;;;;;4.08;70.90;101825.66;5057051;28;20021;-65
2024/01/07 04:24:28;;;;;;;33.88;24.73;;;;;;;4.05;70.92;101825.19;5072090;28;20554;-65
2024/01/07 04:26:53;;;;;;;31.67;24.80;;;;;;;4.03;70.73;101828.13;5055399;28;20112;-65
2024/01/07 04:29:19;;;;;;;30.90;23.75;;;;;;;4.02;70.83;101837.41;5062919;28;20383;-65
2024/01/07 04:31:44;;;;;;;30.00;24.05;;;;;;;4.07;70.97;101839.59;5054911;28;20028;-65
2024/01/07 04:34:09;;;;;;;35.03;24.67;;;;;;;4.03;70.84;101844.59;5060020;28;20032;-64
2024/01/07 04:36:35;;;;;;;32.60;23.83;;;;;;;4.08;70.84;101844.91;5063816;28;20024;-65
2024/01/07 04:39:03;;;;;;;35.08;25.80;;;;;;;4.03;70.66;101852.84;5090444;28;20084;-65
2024/01/07 04:41:28;;;;;;;32.67;23.00;;;;;;;3.93;70.87;101844.88;5064692;28;20470;-65
2024/01/07 04:43:53;;;;;;;32.78;23.92;;;;;;;3.94;71.09;101852.06;5063866;28;20065;-65
2024/01/07 04:46:18;;;;;;;33.00;23.83;;;;;;;3.96;71.04;101853.78;5058198;28;20050;-65
2024/01/07 04:48:44;;;;;;;37.15;25.20;;;;;;;3.98;71.57;101865.44;5070473;28;20380;-64
2024/01/07 04:51:09;;;;;;;32.75;24.02;;;;;;;3.98;71.03;101860.81;5083119;28;20025;-65
2024/01/07 04:53:35;;;;;;;33.63;23.85;;;;;;;3.97;70.81;101867.34;5076551;28;20039;-65
2024/01/07 04:56:01;;;;;;;32.00;23.67;;;;;;;3.93;71.14;101860.50;5069323;28;20877;-65
2024/01/07 04:58:26;;;;;;;33.85;23.95;;;;;;;3.90;70.67;101864.47;5071025;28;20116;-64
2024/01/07 05:00:51;;;;;;;32.25;23.45;;;;;;;3.89;71.02;101870.13;5066000;28;20060;-65
2024/01/07 05:03:17;;;;;;;25.67;20.42;;;;;;;3.86;70.67;101868.63;5068774;28;20036;-65
2024/01/07 05:05:42;;;;;;;29.48;22.13;;;;;;;3.80;70.11;101866.59;5083944;28;20028;-65
2024/01/07 05:08:07;;;;;;;27.05;20.15;;;;;;;3.79;69.87;101873.13;5087805;28;20439;-65
2024/01/07 05:10:32;;;;;;;29.65;21.05;;;;;;;3.71;70.03;101875.09;5070159;28;20052;-65
2024/01/07 05:12:58;;;;;;;25.88;20.17;;;;;;;3.72;70.79;101877.66;5084140;28;20865;-66
2024/01/07 05:15:23;;;;;;;27.83;20.75;;;;;;;3.77;71.00;101882.59;5058976;28;20029;-65
2024/01/07 05:17:51;;;;;;;26.95;19.52;;;;;;;3.72;70.33;101874.06;5070332;28;20174;-65
2024/01/07 05:20:17;;;;;;;24.73;19.90;;;;;;;3.76;70.43;101880.88;5057034;28;20117;-65
2024/01/07 05:22:42;;;;;;;24.17;19.45;;;;;;;3.81;70.35;101882.06;5056943;28;20108;-65
2024/01/07 05:25:08;;;;;;;22.98;18.77;;;;;;;3.85;69.79;101880.66;5068740;28;20024;-65
2024/01/07 05:27:33;;;;;;;21.42;17.83;;;;;;;3.88;69.68;101888.50;5088708;28;20028;-65
2024/01/07 05:29:58;;;;;;;18.42;16.42;;;;;;;3.77;68.84;101894.41;5067429;28;20040;-65
2024/01/07 05:32:23;;;;;;;18.65;15.73;;;;;;;3.77;69.39;101904.56;5063032;28;20024;-65
2024/01/07 05:34:50;;;;;;;20.95;16.73;;;;;;;3.73;69.59;101904.06;5059486;28;20040;-65
2024/01/07 05:37:15;;;;;;;19.55;16.20;;;;;;;3.69;69.51;101906.34;5054164;28;20028;-65
2024/01/07 05:39:40;;;;;;;19.15;16.00;;;;;;;3.78;69.45;101917.28;5067627;28;20024;-65
2024/01/07 05:42:06;;;;;;;20.27;16.55;;;;;;;3.81;69.79;101922.38;5084210;28;20036;-65
2024/01/07 05:44:31;;;;;;;19.05;15.98;;;;;;;3.85;69.92;101918.22;5055567;28;20040;-65
2024/01/07 05:46:56;;;;;;;18.60;15.60;;;;;;;3.86;69.49;101915.31;5054504;28;20036;-65
2024/01/07 05:49:21;;;;;;;17.67;14.77;;;;;;;3.83;69.19;101921.16;5063625;28;20384;-65
2024/01/07 05:51:47;;;;;;;15.48;13.85;;;;;;;3.81;69.11;101925.13;5064982;28;20025;-65
2024/01/07 05:54:12;;;;;;;15.77;13.98;;;;;;;3.79;69.20;101924.47;5069239;28;20036;-65
2024/01/07 05:56:41;;;;;;;16.65;14.20;;;;;;;3.82;69.04;101924.09;5068436;28;20042;-65
2024/01/07 05:59:07;;;;;;;16.27;14.30;;;;;;;3.76;69.14;101931.16;5065185;28;20099;-65
2024/01/07 06:01:32;;;;;;;17.30;15.07;;;;;;;3.80;69.24;101934.41;5056007;28;20071;-65
2024/01/07 06:03:58;;;;;;;20.15;15.55;;;;;;;3.84;68.94;101927.50;5060962;28;20165;-65
2024/01/07 06:06:23;;;;;;;18.05;16.00;;;;;;;3.82;69.40;101937.84;5069507;28;20028;-65
2024/01/07 06:08:48;;;;;;;16.98;15.07;;;;;;;3.85;69.31;101940.19;5058153;28;20032;-65
2024/01/07 06:11:18;;;;;;;17.08;14.93;;;;;;;3.79;68.49;101950.03;5073911;28;20021;-65
2024/01/07 06:13:44;;;;;;;16.13;14.32;;;;;;;3.80;68.29;101948.13;5065945;28;20106;-65
2024/01/07 06:16:10;;;;;;;15.80;14.20;;;;;;;3.80;68.86;101949.00;5053895;28;20032;-65
2024/01/07 06:18:35;;;;;;;15.00;13.40;;;;;;;3.83;68.82;101953.28;5065739;28;20055;-65
2024/01/07 06:21:00;;;;;;;15.65;13.95;;;;;;;3.83;68.41;101954.13;5052655;28;20503;-65
2024/01/07 06:23:25;;;;;;;16.05;13.73;;;;;;;3.84;68.83;101955.81;5051598;28;20051;-65
2024/01/07 06:25:51;;;;;;;15.55;13.38;;;;;;;3.85;68.43;101957.56;5074402;28;20029;-65
2024/01/07 06:28:16;;;;;;;14.73;13.25;;;;;;;3.88;68.10;101961.81;5072975;28;20025;-65
2024/01/07 06:30:41;;;;;;;14.50;12.98;;;;;;;3.82;67.55;101976.28;5061280;28;20044;-65
2024/01/07 06:33:07;;;;;;;15.00;13.25;;;;;;;3.82;67.55;101968.91;5053070;28;20107;-65
2024/01/07 06:35:32;;;;;;;15.32;13.57;;;;;;;3.84;67.49;101977.78;5053407;28;20029;-65
2024/01/07 06:37:57;;;;;;;14.73;13.23;;;;;;;3.82;67.80;101979.03;5053235;28;20522;-65
2024/01/07 06:40:23;;;;;;;15.73;14.10;;;;;;;3.85;67.84;101996.00;5060464;28;20044;-65
2024/01/07 06:42:51;;;;;;;16.35;14.65;;;;;;;3.83;68.06;101997.22;5066111;28;20395;-65
2024/01/07 06:45:17;;;;;;;17.40;15.50;;;;;;;3.74;68.23;101996.41;5060217;28;20132;-65
2024/01/07 06:47:42;;;;;;;18.00;15.52;;;;;;;3.77;68.36;102000.66;5076346;28;20535;-65
2024/01/07 06:50:10;;;;;;;18.33;16.42;;;;;;;3.75;68.54;102003.59;5052740;28;20036;-65
2024/01/07 06:52:35;;;;;;;20.55;16.98;;;;;;;3.74;68.32;102007.41;5061272;28;20071;-65
2024/01/07 06:55:01;;;;;;;20.40;17.80;;;;;;;3.79;68.19;102009.59;5052075;28;20029;-65
2024/01/07 06:57:26;;;;;;;19.08;16.95;;;;;;;3.78;68.02;102011.50;5053022;28;20025;-65
2024/01/07 06:59:51;;;;;;;21.70;18.63;;;;;;;3.66;68.08;102012.94;5076092;28;20029;-65
2024/01/07 07:02:20;;;;;;;21.02;18.77;;;;;;;3.71;68.96;102016.00;5060639;28;20032;-65
2024/01/07 07:04:45;;;;;;;21.75;18.52;;;;;;;3.68;68.90;102017.19;5064170;28;20458;-65
2024/01/07 07:07:10;;;;;;;24.50;19.75;;;;;;;3.65;68.71;102028.53;5052676;28;20113;-65
2024/01/07 07:09:36;;;;;;;22.42;19.40;;;;;;;3.64;68.84;102021.34;5052158;28;20554;-65
2024/01/07 07:12:01;;;;;;;22.50;19.27;;;;;;;3.71;68.27;102026.13;5053182;28;20036;-65
2024/01/07 07:14:26;;;;;;;23.20;19.60;;;;;;;3.69;69.10;102035.41;5063195;28;20047;-65
2024/01/07 07:16:51;;;;;;;23.83;19.60;;;;;;;3.66;69.04;102033.00;5054470;28;20407;-65
2024/01/07 07:19:17;;;;;;;22.63;18.58;;;;;;;3.69;68.77;102037.25;5052702;28;20029;-65
2024/01/07 07:21:44;;;;;;;23.52;20.00;;;;;;;3.66;68.53;102035.75;5052217;28;20388;-66
2024/01/07 07:24:09;;;;;;;22.60;19.02;;;;;;;3.63;68.22;102046.22;5051543;28;20037;-65
2024/01/07 07:26:35;;;;;;;23.48;18.88;;;;;;;3.68;68.74;102049.28;5055877;28;20031;-65
2024/01/07 07:29:02;;;;;;;21.50;19.27;;;;;;;3.62;68.50;102048.13;5072503;28;20107;-65
2024/01/07 07:31:27;;;;;;;23.42;19.85;;;;;;;3.59;68.51;102051.22;5057701;28;20033;-65
2024/01/07 07:33:52;;;;;;;22.38;19.75;;;;;;;3.60;68.39;102055.66;5055864;28;20103;-65
2024/01/07 07:36:17;;;;;;;21.50;19.08;;;;;;;3.58;68.32;102063.25;5071050;28;20551;-65
2024/01/07 07:38:43;;;;;;;21.27;19.02;;;;;;;3.57;69.14;102067.00;5071806;28;20020;-65
2024/01/07 07:41:08;;;;;;;20.85;18.65;;;;;;;3.63;68.85;102069.03;5064079;28;20048;-65
2024/01/07 07:43:34;;;;;;;21.70;19.08;;;;;;;3.65;68.74;102083.44;5052061;28;20495;-65
2024/01/07 07:46:01;;;;;;;17.52;15.63;;;;;;;3.59;67.69;102086.91;5048217;28;20035;-64
2024/01/07 07:48:27;;;;;;;16.60;14.65;;;;;;;3.53;67.68;102095.84;5054771;28;20020;-64
2024/01/07 07:50:53;;;;;;;16.85;15.05;;;;;;;3.42;67.00;102094.34;5062116;28;20036;-63
2024/01/07 07:53:18;;;;;;;16.88;14.52;;;;;;;3.33;67.26;102102.75;5059956;28;20035;-64
2024/01/07 07:55:49;;;;;;;17.45;14.55;;;;;;;3.30;67.35;102105.84;5061786;28;20031;-64
2024/01/07 07:58:15;;;;;;;16.63;14.07;;;;;;;3.29;67.30;102115.13;5058808;28;20025;-65
2024/01/07 08:00:40;;;;;;;17.85;15.35;;;;;;;3.25;66.91;102109.13;5057398;28;20056;-63
2024/01/07 08:03:05;;;;;;;16.10;14.40;;;;;;;3.20;67.35;102122.50;5052086;28;20036;-63
2024/01/07 08:05:31;;;;;;;18.38;15.15;;;;;;;3.20;67.40;102117.88;5060575;28;20029;-63
2024/01/07 08:07:56;;;;;;;16.02;14.23;;;;;;;3.20;66.88;102128.84;5058460;28;20110;-63
2024/01/07 08:10:24;;;;;;;16.13;13.93;;;;;;;3.23;67.43;102119.44;5051047;28;20029;-65
2024/01/07 08:12:50;;;;;;;17.48;13.90;;;;;;;3.25;67.16;102122.84;5060310;28;20031;-60
2024/01/07 08:15:15;;;;;;;17.42;14.52;;;;;;;3.27;67.23;102119.94;5057200;28;20391;-64
2024/01/07 08:17:40;;;;;;;18.48;14.55;;;;;;;3.30;66.83;102122.31;5059000;28;20068;-64
2024/01/07 08:20:06;;;;;;;17.73;13.68;;;;;;;3.34;66.94;102126.41;5064987;28;20037;-64
2024/01/07 08:22:32;;;;;;;16.60;14.10;;;;;;;3.39;67.11;102126.78;5062810;28;20063;-62
2024/01/07 08:24:57;;;;;;;15.55;13.77;;;;;;;3.30;66.99;102133.28;5050808;28;20028;-62
2024/01/07 08:27:22;;;;;;;17.52;14.25;;;;;;;3.32;67.03;102131.25;5060047;28;20028;-62
2024/01/07 08:29:47;;;;;;;17.38;14.70;;;;;;;3.33;67.25;102141.19;5067245;28;20044;-63
2024/01/07 08:32:13;;;;;;;18.23;14.52;;;;;;;3.34;66.67;102145.63;5059382;28;20036;-62
2024/01/07 08:34:39;;;;;;;15.82;14.02;;;;;;;3.34;66.79;102145.63;5061257;28;20483;-61
2024/01/07 08:37:05;;;;;;;17.83;14.55;;;;;;;3.33;67.01;102146.66;5055358;28;20054;-61
2024/01/07 08:39:30;;;;;;;17.48;14.32;;;;;;;3.38;66.87;102158.84;5057615;28;20045;-62
2024/01/07 08:41:56;;;;;;;16.70;13.88;;;;;;;3.42;66.67;102162.13;5056000;28;20024;-62
2024/01/07 08:44:21;;;;;;;17.55;13.95;;;;;;;3.41;66.33;102158.47;5074622;28;20081;-62
2024/01/07 08:46:46;;;;;;;15.80;14.13;;;;;;;3.29;66.55;102165.38;5060246;28;20147;-63
2024/01/07 08:49:13;;;;;;;14.80;13.10;;;;;;;3.30;66.51;102172.59;5054490;28;20048;-62
2024/01/07 08:51:39;;;;;;;16.10;14.18;;;;;;;3.30;66.15;102169.84;5066902;28;20036;-62
2024/01/07 08:54:04;;;;;;;16.13;14.00;;;;;;;3.34;66.38;102173.97;5070617;28;20062;-63
2024/01/07 08:56:30;;;;;;;18.92;13.35;;;;;;;3.31;65.89;102184.41;5063385;28;20362;-62
2024/01/07 08:58:55;;;;;;;17.20;14.02;;;;;;;3.33;66.26;102180.44;5065483;28;20024;-63
2024/01/07 09:01:20;;;;;;;15.85;13.27;;;;;;;3.33;65.83;102185.09;5050262;28;20055;-64
2024/01/07 09:03:45;;;;;;;14.75;13.20;;;;;;;3.34;65.85;102192.28;5049811;28;20033;-63
2024/01/07 09:06:11;;;;;;;16.30;13.95;;;;;;;3.29;65.55;102189.22;5058273;28;20024;-63
2024/01/07 09:08:36;;;;;;;14.48;12.98;;;;;;;3.29;65.88;102203.78;5050437;28;20114;-63
2024/01/07 09:11:06;;;;;;;15.73;13.55;;;;;;;3.27;66.08;102194.03;5048893;28;20029;-63
2024/01/07 09:13:32;;;;;;;14.73;12.90;;;;;;;3.28;66.26;102196.59;5057778;28;20029;-63
2024/01/07 09:15:57;;;;;;;15.50;12.65;;;;;;;3.30;66.10;102210.13;5051551;28;20628;-63
2024/01/07 09:18:22;;;;;;;13.45;12.05;;;;;;;3.30;66.10;102210.13;5050576;28;20865;-63
2024/01/07 09:20:48;;;;;;;14.82;13.10;;;;;;;3.26;66.06;102217.84;5051467;28;20190;-64
2024/01/07 09:23:14;;;;;;;13.77;12.30;;;;;;;3.18;65.11;102218.72;5053997;28;20682;-63
2024/01/07 09:25:41;;;;;;;13.77;11.70;;;;;;;3.15;65.23;102224.53;5059919;28;20472;-63
2024/01/07 09:28:06;;;;;;;13.07;11.73;;;;;;;3.07;65.81;102232.78;5058689;28;20033;-64
2024/01/07 09:30:32;;;;;;;13.38;11.98;;;;;;;3.04;65.50;102222.13;5061919;28;20028;-64
2024/01/07 09:32:57;;;;;;;13.75;11.65;;;;;;;2.97;65.83;102237.56;5060285;28;20031;-64
2024/01/07 09:35:22;;;;;;;13.35;12.07;;;;;;;2.99;65.36;102240.13;5055130;28;20506;-63
2024/01/07 09:37:47;;;;;;;12.90;11.60;;;;;;;2.89;66.01;102243.03;5062004;28;20045;-64
2024/01/07 09:40:18;;;;;;;14.55;11.63;;;;;;;2.89;66.52;102243.03;5073923;28;20114;-63
2024/01/07 09:42:43;;;;;;;13.05;11.35;;;;;;;2.91;66.12;102249.22;5068869;28;20024;-63
2024/01/07 09:45:13;;;;;;;13.60;12.30;;;;;;;2.92;66.17;102250.91;5054401;28;20499;-63
2024/01/07 09:47:44;;;;;;;13.57;12.18;;;;;;;2.97;66.18;102264.97;5069353;28;20072;-64
2024/01/07 09:50:10;;;;;;;12.98;11.32;;;;;;;2.90;66.57;102269.41;5072405;28;20060;-63
2024/01/07 09:52:38;;;;;;;13.05;11.75;;;;;;;2.86;66.06;102263.41;5070309;28;20017;-63
2024/01/07 09:55:05;;;;;;;13.20;11.90;;;;;;;2.82;66.71;102269.41;5056342;28;20028;-64
2024/01/07 09:57:30;;;;;;;12.40;11.10;;;;;;;2.86;65.86;102279.00;5068095;28;20032;-63
2024/01/07 09:59:56;;;;;;;12.32;11.10;;;;;;;2.85;66.23;102275.41;5068390;28;20048;-64
2024/01/07 10:02:24;;;;;;;12.13;10.93;;;;;;;2.84;66.04;102275.59;5059087;28;20086;-63
2024/01/07 10:04:49;;;;;;;11.65;10.55;;;;;;;2.82;65.10;102274.88;5060777;28;20058;-64
2024/01/07 10:07:15;;;;;;;11.98;10.82;;;;;;;2.84;65.91;102281.06;5072159;28;20020;-64
2024/01/07 10:09:44;;;;;;;12.70;11.13;;;;;;;2.79;65.75;102280.69;5059011;28;20033;-63
2024/01/07 10:12:12;;;;;;;11.98;10.88;;;;;;;2.83;65.27;102287.56;5053149;28;20051;-63
2024/01/07 10:14:39;;;;;;;11.88;10.68;;;;;;;2.78;65.86;102287.22;5053053;28;20032;-64
2024/01/07 10:17:14;;;;;;;12.90;11.60;;;;;;;2.83;66.35;102296.66;5053860;28;20033;-63
2024/01/07 10:19:39;;;;;;;12.27;11.05;;;;;;;2.80;65.22;102307.09;5068451;28;20036;-63
2024/01/07 10:22:05;;;;;;;11.60;10.52;;;;;;;2.80;65.79;102296.13;5069430;28;20046;-63
2024/01/07 10:24:38;;;;;;;12.02;10.82;;;;;;;2.79;66.30;102291.66;5072790;28;20073;-63
2024/01/07 10:27:04;;;;;;;12.45;11.20;;;;;;;2.76;65.95;102301.09;5066109;28;20028;-63
2024/01/07 10:29:30;;;;;;;12.18;10.98;;;;;;;2.82;65.81;102313.28;5068816;28;20028;-63
2024/01/07 10:31:59;;;;;;;13.10;11.82;;;;;;;2.81;66.00;102312.41;5061090;28;20036;-63
2024/01/07 10:34:28;;;;;;;11.88;10.77;;;;;;;2.82;66.08;102303.16;5052344;28;20819;-63
2024/01/07 10:36:59;;;;;;;12.00;10.90;;;;;;;2.88;66.33;102301.66;5066251;28;20061;-63
2024/01/07 10:39:24;;;;;;;12.70;11.40;;;;;;;2.83;65.81;102310.38;5057251;28;20135;-63
2024/01/07 10:41:53;;;;;;;11.85;10.52;;;;;;;2.83;65.75;102296.66;5052662;28;20124;-63
2024/01/07 10:44:19;;;;;;;11.65;10.55;;;;;;;2.85;65.10;102305.56;5052410;28;20061;-63
2024/01/07 10:46:46;;;;;;;12.23;11.02;;;;;;;2.82;65.81;102302.31;5063214;28;20067;-63
2024/01/07 10:49:21;;;;;;;12.57;11.27;;;;;;;2.74;66.13;102305.03;5053764;28;20025;-63
2024/01/07 10:51:56;;;;;;;12.23;10.95;;;;;;;2.73;66.53;102301.41;5062858;28;20024;-63
2024/01/07 10:54:23;;;;;;;12.80;11.50;;;;;;;2.81;66.38;102295.97;5052572;28;20052;-63
2024/01/07 10:56:53;;;;;;;12.35;11.15;;;;;;;2.86;66.84;102300.94;5071237;28;20098;-63
2024/01/07 10:59:19;;;;;;;12.18;10.93;;;;;;;2.90;66.82;102300.44;5071456;28;20094;-63
2024/01/07 11:01:45;;;;;;;11.55;10.50;;;;;;;2.98;66.46;102306.97;5055511;28;20033;-63
2024/01/07 11:04:50;;;;;;;12.70;11.50;;;;;;;3.00;66.96;102307.69;5067623;28;20029;-65
2024/01/07 11:07:37;;;;;;;12.90;11.13;;;;;;;2.98;66.68;102306.97;5070543;28;20193;-65
2024/01/07 11:10:11;;;;;;;12.93;11.57;;;;;;;3.01;65.99;102309.38;5053929;28;20029;-64
2024/01/07 11:12:36;;;;;;;13.32;11.93;;;;;;;3.01;66.12;102314.88;5052853;28;20037;-62